Portada
METAR-TAF:

METAR-TAF

Aeropuertos :

Karachi, Pakistán

Aeropuerto Internacional Jinnah

latitud: 24-54N, longitud: 067-08E, altitud: 21 m

Observación

El informe se hizo hace 39 minutos, a las 08:55 UTC
Viento 9 kt del oeste-suroeste
Temperatura 32°C
Humedad 29%
Presión 1012 hPa
Visibilidad: 6000 m

METAR: OPKC 200855Z 24009KT 6000 NSC 32/12 Q1012 NOSIG

Hora: 14:34 (09:34 UTC)

Pronóstico

El informe se hizo hace 6 horas y 4 minutos, a las 03:30 UTC
Pronóstico válido del 20 a las 06 UTC al 20 a las 15 UTC
Viento 5 kt del oeste-suroeste con ráfagas de 15 kt
Visibilidad: 5000 m
Nubes dispersas a una altura de 2000 ft
calima

TAF: OPKC 200330Z 2006/2015 24005G15KT 5000 HZ SCT020

Observaciones y pronósticos meteorológicos de más de 4000 aeropuertos (mensajes METAR y TAF).

Los puntos amarillos y rojos representan las estaciones disponibles.

Ponga el ratón en el punto deseado para ver el nombre de la estación.

Haga clic para ver las observaciones y los pronósticos meteorológicos.

Para cambiar el mapa : haga clic en los botones verdes con una cruz de color negro para hacer un zoom, en el botón verde con un guión para alejar o en las flechas verdes para mapas adyacentes.


METAR-TAF: